Palacios, TX (77465)

1:41 PM CDT on July 27, 2016 (GMT -0500)
Palacios Municipal | | Change Station

Elev 16 ft 28.73 °N, 96.25 °W | Updated 48 minutes ago

Scattered Clouds
Scattered Clouds
89 °F
Feels Like 103 °F
N
10
Wind Variable Wind from South

Today
High -- | Low -- °F
--% Chance of Precip.
Yesterday
High -- | Low -- °F
Precip. -- in
Pressure 29.99 in
Visibility 10.0 miles
Clouds Few 2400 ft
Scattered Clouds 2900 ft
Scattered Clouds 3500 ft
Heat Index 103 °F
Dew Point 78 °F
Humidity 70%
Rainfall 0.81 in
Snow Depth Not available.
6:43 AM 8:18 PM
Last Quarter, 41% visible
METAR KPSX 271753Z AUTO 19009KT 10SM FEW024 SCT029 SCT035 32/26 A2999 RMK AO2 SLP156 6//// T03170256 10317 20228 50003
Pressure 29.99 in
Visibility 10.0 miles
Clouds Few 2400 ft
Scattered Clouds 2900 ft
Scattered Clouds 3500 ft
Heat Index 103 °F
Dew Point 78 °F
Humidity 70%
Rainfall 0.81 in
Snow Depth Not available.
6:43 AM 8:18 PM
Last Quarter, 41% visible
METAR KPSX 271753Z AUTO 19009KT 10SM FEW024 SCT029 SCT035 32/26 A2999 RMK AO2 SLP156 6//// T03170256 10317 20228 50003

10-Day Weather Forecast

Almanac

Astronomy

Jul. 27, 2016 Rise Set
Actual Time
Civil Twilight
Nautical Twilight
Astronomical Twilight
Moon
Length of Visible Light
Length of Day
Tomorrow will be .
, % of the Moon is Illuminated

Today's Extremes

State Highs State Lows

Community

WunderPhotos

Upload Photos

1,927,897 photos uploaded!

WunderBlog® & News

Nearby

Air Quality

  Air Quality AQ Index Pollutant
Not available.

Snow Depth

Station Depth Elevation

Earthquake Activity

City Distance Mag. Time & Date
Minimum magnitude displayed is 2.5.

Coastal Water Temperatures

Place Temperature

Stations

Nearby Weather Stations

Station Location Temp. Windchill Dew Point Humidity Wind Precip. Elev Updated Type
                   

Watches & Warnings

There are currently no watches in effect.